sensor_id;sensor_type;location;lat;lon;timestamp;temperature;humidity
5126;DHT22;2581;53.112;8.896;2022-07-29T00:01:46;18.20;99.90
5126;DHT22;2581;53.112;8.896;2022-07-29T00:04:12;18.20;99.90
5126;DHT22;2581;53.112;8.896;2022-07-29T00:06:38;18.20;99.90
5126;DHT22;2581;53.112;8.896;2022-07-29T00:09:04;18.20;99.90
5126;DHT22;2581;53.112;8.896;2022-07-29T00:11:29;18.20;99.90
5126;DHT22;2581;53.112;8.896;2022-07-29T00:13:55;18.20;99.90
5126;DHT22;2581;53.112;8.896;2022-07-29T00:16:21;18.20;99.90
5126;DHT22;2581;53.112;8.896;2022-07-29T00:18:46;18.10;99.90
5126;DHT22;2581;53.112;8.896;2022-07-29T00:21:12;18.10;99.90
5126;DHT22;2581;53.112;8.896;2022-07-29T00:23:38;18.10;99.90
5126;DHT22;2581;53.112;8.896;2022-07-29T00:26:04;18.10;99.90
5126;DHT22;2581;53.112;8.896;2022-07-29T00:28:29;18.10;99.90
5126;DHT22;2581;53.112;8.896;2022-07-29T00:30:55;18.10;99.90
5126;DHT22;2581;53.112;8.896;2022-07-29T00:33:21;18.10;99.90
5126;DHT22;2581;53.112;8.896;2022-07-29T00:35:47;18.00;99.90
5126;DHT22;2581;53.112;8.896;2022-07-29T00:38:18;18.00;99.90
5126;DHT22;2581;53.112;8.896;2022-07-29T00:40:44;18.00;99.90
5126;DHT22;2581;53.112;8.896;2022-07-29T00:43:11;18.00;99.90
5126;DHT22;2581;53.112;8.896;2022-07-29T00:45:37;17.90;99.90
5126;DHT22;2581;53.112;8.896;2022-07-29T00:48:03;17.90;99.90
5126;DHT22;2581;53.112;8.896;2022-07-29T00:50:31;17.80;99.90
5126;DHT22;2581;53.112;8.896;2022-07-29T00:52:57;17.80;99.90
5126;DHT22;2581;53.112;8.896;2022-07-29T00:55:23;17.80;99.90
5126;DHT22;2581;53.112;8.896;2022-07-29T00:57:50;17.80;99.90
5126;DHT22;2581;53.112;8.896;2022-07-29T01:00:22;17.80;99.90
5126;DHT22;2581;53.112;8.896;2022-07-29T01:02:48;17.90;99.90
5126;DHT22;2581;53.112;8.896;2022-07-29T01:05:15;17.80;99.90
5126;DHT22;2581;53.112;8.896;2022-07-29T01:07:42;17.80;99.90
5126;DHT22;2581;53.112;8.896;2022-07-29T01:10:09;17.80;99.90
5126;DHT22;2581;53.112;8.896;2022-07-29T01:12:36;17.80;99.90
5126;DHT22;2581;53.112;8.896;2022-07-29T01:15:04;17.80;99.90
5126;DHT22;2581;53.112;8.896;2022-07-29T01:17:36;17.80;99.90
5126;DHT22;2581;53.112;8.896;2022-07-29T01:31:00;17.80;99.90
5126;DHT22;2581;53.112;8.896;2022-07-29T01:33:28;17.80;99.90
5126;DHT22;2581;53.112;8.896;2022-07-29T01:36:16;17.80;99.90
5126;DHT22;2581;53.112;8.896;2022-07-29T01:38:45;17.80;99.90
5126;DHT22;2581;53.112;8.896;2022-07-29T01:41:16;17.80;99.90
5126;DHT22;2581;53.112;8.896;2022-07-29T01:43:53;17.70;99.90
5126;DHT22;2581;53.112;8.896;2022-07-29T01:46:32;17.70;99.90
5126;DHT22;2581;53.112;8.896;2022-07-29T01:49:10;17.80;99.90
5126;DHT22;2581;53.112;8.896;2022-07-29T01:51:44;17.80;99.90
5126;DHT22;2581;53.112;8.896;2022-07-29T01:56:50;17.80;99.90
5126;DHT22;2581;53.112;8.896;2022-07-29T01:59:17;17.80;99.90
5126;DHT22;2581;53.112;8.896;2022-07-29T02:01:45;17.80;99.90
5126;DHT22;2581;53.112;8.896;2022-07-29T02:04:13;17.80;99.90
5126;DHT22;2581;53.112;8.896;2022-07-29T02:06:41;17.80;99.90
5126;DHT22;2581;53.112;8.896;2022-07-29T02:09:09;17.80;99.90
5126;DHT22;2581;53.112;8.896;2022-07-29T02:11:37;17.80;99.90
5126;DHT22;2581;53.112;8.896;2022-07-29T02:14:04;17.80;99.90
5126;DHT22;2581;53.112;8.896;2022-07-29T02:16:31;17.80;99.90
5126;DHT22;2581;53.112;8.896;2022-07-29T02:19:00;17.80;99.90
5126;DHT22;2581;53.112;8.896;2022-07-29T02:21:27;17.80;99.90
5126;DHT22;2581;53.112;8.896;2022-07-29T02:23:56;17.80;99.90
5126;DHT22;2581;53.112;8.896;2022-07-29T02:26:23;17.70;99.90
5126;DHT22;2581;53.112;8.896;2022-07-29T02:28:51;17.80;99.90
5126;DHT22;2581;53.112;8.896;2022-07-29T02:31:20;17.70;99.90
5126;DHT22;2581;53.112;8.896;2022-07-29T02:33:47;17.70;99.90
5126;DHT22;2581;53.112;8.896;2022-07-29T02:36:13;17.70;99.90
5126;DHT22;2581;53.112;8.896;2022-07-29T02:38:41;17.70;99.90
5126;DHT22;2581;53.112;8.896;2022-07-29T02:41:29;17.60;99.90
5126;DHT22;2581;53.112;8.896;2022-07-29T02:43:58;17.70;99.90
5126;DHT22;2581;53.112;8.896;2022-07-29T02:46:31;17.70;99.90
5126;DHT22;2581;53.112;8.896;2022-07-29T02:54:40;17.70;99.90
5126;DHT22;2581;53.112;8.896;2022-07-29T02:57:36;17.70;99.90
5126;DHT22;2581;53.112;8.896;2022-07-29T03:00:07;17.70;99.90
5126;DHT22;2581;53.112;8.896;2022-07-29T03:02:36;17.70;99.90
5126;DHT22;2581;53.112;8.896;2022-07-29T03:05:04;17.70;99.90
5126;DHT22;2581;53.112;8.896;2022-07-29T03:07:33;17.70;99.90
5126;DHT22;2581;53.112;8.896;2022-07-29T03:09:59;17.70;99.90
5126;DHT22;2581;53.112;8.896;2022-07-29T03:12:26;17.70;99.90
5126;DHT22;2581;53.112;8.896;2022-07-29T03:14:53;17.70;99.90
5126;DHT22;2581;53.112;8.896;2022-07-29T03:17:20;17.70;99.90
5126;DHT22;2581;53.112;8.896;2022-07-29T03:19:46;17.60;99.90
5126;DHT22;2581;53.112;8.896;2022-07-29T03:22:13;17.60;99.90
5126;DHT22;2581;53.112;8.896;2022-07-29T03:24:39;17.60;99.90
5126;DHT22;2581;53.112;8.896;2022-07-29T03:27:04;17.60;99.90
5126;DHT22;2581;53.112;8.896;2022-07-29T03:29:31;17.60;99.90
5126;DHT22;2581;53.112;8.896;2022-07-29T03:31:56;17.60;99.90
5126;DHT22;2581;53.112;8.896;2022-07-29T03:34:22;17.60;99.90
5126;DHT22;2581;53.112;8.896;2022-07-29T03:36:48;17.60;99.90
5126;DHT22;2581;53.112;8.896;2022-07-29T03:39:20;17.60;99.90
5126;DHT22;2581;53.112;8.896;2022-07-29T03:41:48;17.60;99.90
5126;DHT22;2581;53.112;8.896;2022-07-29T03:44:16;17.60;99.90
5126;DHT22;2581;53.112;8.896;2022-07-29T03:46:43;17.50;99.90
5126;DHT22;2581;53.112;8.896;2022-07-29T03:49:11;17.60;99.90
5126;DHT22;2581;53.112;8.896;2022-07-29T03:51:37;17.50;99.90
5126;DHT22;2581;53.112;8.896;2022-07-29T03:54:04;17.50;99.90
5126;DHT22;2581;53.112;8.896;2022-07-29T03:56:32;17.50;99.90
5126;DHT22;2581;53.112;8.896;2022-07-29T03:59:02;17.60;99.90
5126;DHT22;2581;53.112;8.896;2022-07-29T04:01:28;17.50;99.90
5126;DHT22;2581;53.112;8.896;2022-07-29T04:03:55;17.60;99.90
5126;DHT22;2581;53.112;8.896;2022-07-29T04:06:21;17.60;99.90
5126;DHT22;2581;53.112;8.896;2022-07-29T04:08:47;17.60;99.90
5126;DHT22;2581;53.112;8.896;2022-07-29T04:11:13;17.60;99.90
5126;DHT22;2581;53.112;8.896;2022-07-29T04:13:38;17.60;99.90
5126;DHT22;2581;53.112;8.896;2022-07-29T04:16:04;17.60;99.90
5126;DHT22;2581;53.112;8.896;2022-07-29T04:18:30;17.70;99.90
5126;DHT22;2581;53.112;8.896;2022-07-29T04:20:55;17.70;99.90
5126;DHT22;2581;53.112;8.896;2022-07-29T04:23:21;17.70;99.90
5126;DHT22;2581;53.112;8.896;2022-07-29T04:25:47;17.60;99.90
5126;DHT22;2581;53.112;8.896;2022-07-29T04:28:12;17.70;99.90
5126;DHT22;2581;53.112;8.896;2022-07-29T04:30:38;17.70;99.90
5126;DHT22;2581;53.112;8.896;2022-07-29T04:33:06;17.80;99.90
5126;DHT22;2581;53.112;8.896;2022-07-29T04:35:36;17.80;99.90
5126;DHT22;2581;53.112;8.896;2022-07-29T04:38:03;17.80;99.90
5126;DHT22;2581;53.112;8.896;2022-07-29T04:40:29;17.80;99.90
5126;DHT22;2581;53.112;8.896;2022-07-29T04:42:54;17.80;99.90
5126;DHT22;2581;53.112;8.896;2022-07-29T04:45:20;17.70;99.90
5126;DHT22;2581;53.112;8.896;2022-07-29T04:47:46;17.80;99.90
5126;DHT22;2581;53.112;8.896;2022-07-29T04:50:12;17.80;99.90
5126;DHT22;2581;53.112;8.896;2022-07-29T04:52:37;17.80;99.90
5126;DHT22;2581;53.112;8.896;2022-07-29T04:55:05;17.80;99.90
5126;DHT22;2581;53.112;8.896;2022-07-29T04:57:31;17.90;99.90
5126;DHT22;2581;53.112;8.896;2022-07-29T04:59:56;17.80;99.90
5126;DHT22;2581;53.112;8.896;2022-07-29T05:02:22;17.90;99.90
5126;DHT22;2581;53.112;8.896;2022-07-29T05:04:48;17.80;99.90
5126;DHT22;2581;53.112;8.896;2022-07-29T05:07:14;17.80;99.90
5126;DHT22;2581;53.112;8.896;2022-07-29T05:09:40;17.80;99.90
5126;DHT22;2581;53.112;8.896;2022-07-29T05:12:06;17.90;99.90
5126;DHT22;2581;53.112;8.896;2022-07-29T05:14:32;17.90;99.90
5126;DHT22;2581;53.112;8.896;2022-07-29T05:16:58;17.90;99.90
5126;DHT22;2581;53.112;8.896;2022-07-29T05:19:23;18.00;99.90
5126;DHT22;2581;53.112;8.896;2022-07-29T05:21:49;18.00;99.90
5126;DHT22;2581;53.112;8.896;2022-07-29T05:24:15;18.00;99.90
5126;DHT22;2581;53.112;8.896;2022-07-29T05:26:41;18.00;99.90
5126;DHT22;2581;53.112;8.896;2022-07-29T05:29:08;18.00;99.90
5126;DHT22;2581;53.112;8.896;2022-07-29T05:31:33;18.00;99.90
5126;DHT22;2581;53.112;8.896;2022-07-29T05:33:59;18.00;99.90
5126;DHT22;2581;53.112;8.896;2022-07-29T05:36:25;18.20;99.90
5126;DHT22;2581;53.112;8.896;2022-07-29T05:38:51;18.20;99.90
5126;DHT22;2581;53.112;8.896;2022-07-29T05:41:19;18.30;99.90
5126;DHT22;2581;53.112;8.896;2022-07-29T05:43:45;18.30;99.90
5126;DHT22;2581;53.112;8.896;2022-07-29T05:46:11;18.30;99.90
5126;DHT22;2581;53.112;8.896;2022-07-29T05:48:37;18.30;99.90
5126;DHT22;2581;53.112;8.896;2022-07-29T05:51:03;18.30;99.90
5126;DHT22;2581;53.112;8.896;2022-07-29T05:53:28;18.30;99.90
5126;DHT22;2581;53.112;8.896;2022-07-29T05:55:54;18.40;99.90
5126;DHT22;2581;53.112;8.896;2022-07-29T05:58:20;18.40;99.90
5126;DHT22;2581;53.112;8.896;2022-07-29T06:00:45;18.40;99.90
5126;DHT22;2581;53.112;8.896;2022-07-29T06:03:11;18.50;99.90
5126;DHT22;2581;53.112;8.896;2022-07-29T06:05:37;18.50;99.90
5126;DHT22;2581;53.112;8.896;2022-07-29T06:08:03;18.60;99.90
5126;DHT22;2581;53.112;8.896;2022-07-29T06:10:32;18.60;99.90
5126;DHT22;2581;53.112;8.896;2022-07-29T06:12:58;18.60;99.90
5126;DHT22;2581;53.112;8.896;2022-07-29T06:15:23;18.60;99.90
5126;DHT22;2581;53.112;8.896;2022-07-29T06:17:49;18.70;99.90
5126;DHT22;2581;53.112;8.896;2022-07-29T06:20:15;18.70;99.90
5126;DHT22;2581;53.112;8.896;2022-07-29T06:22:40;18.70;99.90
5126;DHT22;2581;53.112;8.896;2022-07-29T06:25:06;18.80;99.90
5126;DHT22;2581;53.112;8.896;2022-07-29T06:27:32;18.80;99.90
5126;DHT22;2581;53.112;8.896;2022-07-29T06:29:57;18.90;99.90
5126;DHT22;2581;53.112;8.896;2022-07-29T06:32:23;18.90;99.90
5126;DHT22;2581;53.112;8.896;2022-07-29T06:34:49;19.00;99.90
5126;DHT22;2581;53.112;8.896;2022-07-29T06:37:15;19.00;99.90
5126;DHT22;2581;53.112;8.896;2022-07-29T06:39:40;19.00;99.90
5126;DHT22;2581;53.112;8.896;2022-07-29T06:42:06;19.00;99.90
5126;DHT22;2581;53.112;8.896;2022-07-29T06:44:32;19.00;99.90
5126;DHT22;2581;53.112;8.896;2022-07-29T06:47:02;19.10;99.90
5126;DHT22;2581;53.112;8.896;2022-07-29T06:49:28;19.20;99.90
5126;DHT22;2581;53.112;8.896;2022-07-29T06:51:54;19.20;99.90
5126;DHT22;2581;53.112;8.896;2022-07-29T06:54:20;19.20;99.90
5126;DHT22;2581;53.112;8.896;2022-07-29T06:56:46;19.20;99.90
5126;DHT22;2581;53.112;8.896;2022-07-29T06:59:12;19.30;99.90
5126;DHT22;2581;53.112;8.896;2022-07-29T07:01:40;19.40;99.90
5126;DHT22;2581;53.112;8.896;2022-07-29T07:04:07;19.40;99.90
5126;DHT22;2581;53.112;8.896;2022-07-29T07:06:34;19.40;99.90
5126;DHT22;2581;53.112;8.896;2022-07-29T07:09:00;19.40;99.90
5126;DHT22;2581;53.112;8.896;2022-07-29T07:11:26;19.50;99.90
5126;DHT22;2581;53.112;8.896;2022-07-29T07:13:51;19.50;99.90
5126;DHT22;2581;53.112;8.896;2022-07-29T07:16:17;19.70;99.90
5126;DHT22;2581;53.112;8.896;2022-07-29T07:18:43;19.70;99.90
5126;DHT22;2581;53.112;8.896;2022-07-29T07:21:11;19.80;99.90
5126;DHT22;2581;53.112;8.896;2022-07-29T07:23:36;19.90;99.90
5126;DHT22;2581;53.112;8.896;2022-07-29T07:26:03;19.90;99.90
5126;DHT22;2581;53.112;8.896;2022-07-29T07:28:30;19.90;99.90
5126;DHT22;2581;53.112;8.896;2022-07-29T07:30:56;20.00;99.90
5126;DHT22;2581;53.112;8.896;2022-07-29T07:33:21;20.00;99.90
5126;DHT22;2581;53.112;8.896;2022-07-29T07:35:47;20.10;99.90
5126;DHT22;2581;53.112;8.896;2022-07-29T07:38:13;20.10;99.90
5126;DHT22;2581;53.112;8.896;2022-07-29T07:40:39;20.20;99.90
5126;DHT22;2581;53.112;8.896;2022-07-29T07:43:05;20.30;99.90
5126;DHT22;2581;53.112;8.896;2022-07-29T07:45:30;20.40;99.90
5126;DHT22;2581;53.112;8.896;2022-07-29T07:47:58;20.50;99.90
5126;DHT22;2581;53.112;8.896;2022-07-29T07:50:24;20.60;99.90
5126;DHT22;2581;53.112;8.896;2022-07-29T07:52:54;20.60;99.90
5126;DHT22;2581;53.112;8.896;2022-07-29T07:55:23;20.70;99.90
5126;DHT22;2581;53.112;8.896;2022-07-29T07:57:49;20.70;99.90
5126;DHT22;2581;53.112;8.896;2022-07-29T08:00:16;20.80;99.90
5126;DHT22;2581;53.112;8.896;2022-07-29T08:02:42;20.90;99.90
5126;DHT22;2581;53.112;8.896;2022-07-29T08:05:11;20.80;99.90
5126;DHT22;2581;53.112;8.896;2022-07-29T08:07:39;20.80;99.90
5126;DHT22;2581;53.112;8.896;2022-07-29T08:10:05;20.80;99.90
5126;DHT22;2581;53.112;8.896;2022-07-29T08:12:31;20.90;99.90
5126;DHT22;2581;53.112;8.896;2022-07-29T08:14:56;20.90;99.90
5126;DHT22;2581;53.112;8.896;2022-07-29T08:17:22;20.80;99.90
5126;DHT22;2581;53.112;8.896;2022-07-29T08:19:47;20.80;99.90
5126;DHT22;2581;53.112;8.896;2022-07-29T08:22:14;20.80;99.90
5126;DHT22;2581;53.112;8.896;2022-07-29T08:24:39;20.80;99.90
5126;DHT22;2581;53.112;8.896;2022-07-29T08:27:11;20.90;99.90
5126;DHT22;2581;53.112;8.896;2022-07-29T08:29:37;21.00;99.90
5126;DHT22;2581;53.112;8.896;2022-07-29T08:32:03;21.00;99.90
5126;DHT22;2581;53.112;8.896;2022-07-29T08:34:29;21.10;99.90
5126;DHT22;2581;53.112;8.896;2022-07-29T08:36:55;21.20;99.90
5126;DHT22;2581;53.112;8.896;2022-07-29T08:39:22;21.30;99.90
5126;DHT22;2581;53.112;8.896;2022-07-29T08:41:48;21.40;99.90
5126;DHT22;2581;53.112;8.896;2022-07-29T08:44:16;21.60;99.90
5126;DHT22;2581;53.112;8.896;2022-07-29T08:46:42;21.70;99.90
5126;DHT22;2581;53.112;8.896;2022-07-29T08:49:09;21.70;99.90
5126;DHT22;2581;53.112;8.896;2022-07-29T08:51:36;21.80;99.90
5126;DHT22;2581;53.112;8.896;2022-07-29T08:54:05;21.90;99.90
5126;DHT22;2581;53.112;8.896;2022-07-29T08:56:31;21.90;99.90
5126;DHT22;2581;53.112;8.896;2022-07-29T08:58:58;21.90;99.90
5126;DHT22;2581;53.112;8.896;2022-07-29T09:01:29;22.00;99.90
5126;DHT22;2581;53.112;8.896;2022-07-29T09:03:59;22.10;99.90
5126;DHT22;2581;53.112;8.896;2022-07-29T09:06:31;22.10;99.90
5126;DHT22;2581;53.112;8.896;2022-07-29T09:08:59;22.20;99.90
5126;DHT22;2581;53.112;8.896;2022-07-29T09:11:26;22.20;99.90
5126;DHT22;2581;53.112;8.896;2022-07-29T09:13:52;22.30;99.90
5126;DHT22;2581;53.112;8.896;2022-07-29T09:16:17;22.40;99.90
5126;DHT22;2581;53.112;8.896;2022-07-29T09:18:45;22.40;99.90
5126;DHT22;2581;53.112;8.896;2022-07-29T09:21:16;22.40;99.90
5126;DHT22;2581;53.112;8.896;2022-07-29T09:24:10;22.40;99.90
5126;DHT22;2581;53.112;8.896;2022-07-29T09:26:42;22.40;99.90
5126;DHT22;2581;53.112;8.896;2022-07-29T09:29:18;22.50;99.90
5126;DHT22;2581;53.112;8.896;2022-07-29T09:31:46;22.50;99.90
5126;DHT22;2581;53.112;8.896;2022-07-29T09:34:15;22.60;99.90
5126;DHT22;2581;53.112;8.896;2022-07-29T09:36:46;22.70;99.90
5126;DHT22;2581;53.112;8.896;2022-07-29T09:39:13;22.90;99.90
5126;DHT22;2581;53.112;8.896;2022-07-29T09:41:52;23.10;99.90
5126;DHT22;2581;53.112;8.896;2022-07-29T09:44:18;23.20;99.90
5126;DHT22;2581;53.112;8.896;2022-07-29T09:49:19;23.50;99.90
5126;DHT22;2581;53.112;8.896;2022-07-29T09:51:45;23.60;99.90
5126;DHT22;2581;53.112;8.896;2022-07-29T09:54:24;23.70;99.90
5126;DHT22;2581;53.112;8.896;2022-07-29T09:56:54;23.70;99.90
5126;DHT22;2581;53.112;8.896;2022-07-29T09:59:21;23.80;99.90
5126;DHT22;2581;53.112;8.896;2022-07-29T10:01:52;23.80;99.90
5126;DHT22;2581;53.112;8.896;2022-07-29T10:04:18;23.90;99.90
5126;DHT22;2581;53.112;8.896;2022-07-29T10:07:01;23.90;99.90
5126;DHT22;2581;53.112;8.896;2022-07-29T10:09:27;23.90;99.90
5126;DHT22;2581;53.112;8.896;2022-07-29T10:12:22;24.10;99.90
5126;DHT22;2581;53.112;8.896;2022-07-29T10:14:49;24.10;99.90
5126;DHT22;2581;53.112;8.896;2022-07-29T10:17:16;24.20;99.90
5126;DHT22;2581;53.112;8.896;2022-07-29T10:19:42;24.30;99.90
5126;DHT22;2581;53.112;8.896;2022-07-29T10:22:09;24.40;99.90
5126;DHT22;2581;53.112;8.896;2022-07-29T10:24:37;24.40;99.90
5126;DHT22;2581;53.112;8.896;2022-07-29T10:27:05;24.50;99.90
5126;DHT22;2581;53.112;8.896;2022-07-29T10:29:31;24.50;99.90
5126;DHT22;2581;53.112;8.896;2022-07-29T10:32:27;24.50;99.90
5126;DHT22;2581;53.112;8.896;2022-07-29T10:43:44;24.50;99.90
5126;DHT22;2581;53.112;8.896;2022-07-29T10:46:11;24.40;99.90
5126;DHT22;2581;53.112;8.896;2022-07-29T10:54:51;24.40;99.90
5126;DHT22;2581;53.112;8.896;2022-07-29T10:59:52;24.30;99.90
5126;DHT22;2581;53.112;8.896;2022-07-29T11:05:06;24.40;99.90
5126;DHT22;2581;53.112;8.896;2022-07-29T11:07:35;24.50;99.90
5126;DHT22;2581;53.112;8.896;2022-07-29T11:15:11;25.10;99.90
5126;DHT22;2581;53.112;8.896;2022-07-29T11:31:41;26.90;99.90
5126;DHT22;2581;53.112;8.896;2022-07-29T11:34:37;27.30;99.90
5126;DHT22;2581;53.112;8.896;2022-07-29T11:39:42;27.60;99.90
5126;DHT22;2581;53.112;8.896;2022-07-29T11:45:00;27.70;99.90
5126;DHT22;2581;53.112;8.896;2022-07-29T11:47:28;27.80;99.90
5126;DHT22;2581;53.112;8.896;2022-07-29T11:49:55;28.00;99.90
5126;DHT22;2581;53.112;8.896;2022-07-29T11:52:23;27.90;99.90
5126;DHT22;2581;53.112;8.896;2022-07-29T11:54:50;27.90;99.90
5126;DHT22;2581;53.112;8.896;2022-07-29T11:57:17;27.90;99.90
5126;DHT22;2581;53.112;8.896;2022-07-29T11:59:44;27.90;99.90
5126;DHT22;2581;53.112;8.896;2022-07-29T12:02:11;27.90;99.90
5126;DHT22;2581;53.112;8.896;2022-07-29T12:04:53;27.90;99.90
5126;DHT22;2581;53.112;8.896;2022-07-29T12:07:29;27.80;99.90
5126;DHT22;2581;53.112;8.896;2022-07-29T12:09:55;27.70;99.90
5126;DHT22;2581;53.112;8.896;2022-07-29T12:12:21;27.70;99.90
5126;DHT22;2581;53.112;8.896;2022-07-29T12:14:47;27.60;99.90
5126;DHT22;2581;53.112;8.896;2022-07-29T12:17:33;27.50;99.90
5126;DHT22;2581;53.112;8.896;2022-07-29T12:20:03;27.20;99.90
5126;DHT22;2581;53.112;8.896;2022-07-29T12:22:37;27.00;99.90
5126;DHT22;2581;53.112;8.896;2022-07-29T12:27:32;26.60;99.90
5126;DHT22;2581;53.112;8.896;2022-07-29T12:30:06;26.40;99.90
5126;DHT22;2581;53.112;8.896;2022-07-29T12:32:36;26.30;99.90
5126;DHT22;2581;53.112;8.896;2022-07-29T12:35:07;26.20;99.90
5126;DHT22;2581;53.112;8.896;2022-07-29T12:37:35;26.10;99.90
5126;DHT22;2581;53.112;8.896;2022-07-29T12:40:03;26.00;99.90
5126;DHT22;2581;53.112;8.896;2022-07-29T12:42:29;25.90;99.90
5126;DHT22;2581;53.112;8.896;2022-07-29T12:44:55;25.90;99.90
5126;DHT22;2581;53.112;8.896;2022-07-29T12:47:21;25.90;99.90
5126;DHT22;2581;53.112;8.896;2022-07-29T12:49:48;25.90;99.90
5126;DHT22;2581;53.112;8.896;2022-07-29T12:52:29;25.90;99.90
5126;DHT22;2581;53.112;8.896;2022-07-29T12:54:55;25.80;99.90
5126;DHT22;2581;53.112;8.896;2022-07-29T12:57:21;25.80;99.90
5126;DHT22;2581;53.112;8.896;2022-07-29T13:02:25;25.80;99.90
5126;DHT22;2581;53.112;8.896;2022-07-29T13:04:58;25.80;99.90
5126;DHT22;2581;53.112;8.896;2022-07-29T13:07:28;25.90;99.90
5126;DHT22;2581;53.112;8.896;2022-07-29T13:12:39;25.90;99.90
5126;DHT22;2581;53.112;8.896;2022-07-29T13:15:15;26.00;99.90
5126;DHT22;2581;53.112;8.896;2022-07-29T13:17:44;26.10;99.90
5126;DHT22;2581;53.112;8.896;2022-07-29T13:20:11;26.10;99.90
5126;DHT22;2581;53.112;8.896;2022-07-29T13:22:42;26.10;99.90
5126;DHT22;2581;53.112;8.896;2022-07-29T13:25:10;26.20;99.90
5126;DHT22;2581;53.112;8.896;2022-07-29T13:27:38;26.20;99.90
5126;DHT22;2581;53.112;8.896;2022-07-29T13:30:07;26.20;99.90
5126;DHT22;2581;53.112;8.896;2022-07-29T13:32:33;26.20;99.90
5126;DHT22;2581;53.112;8.896;2022-07-29T13:35:05;26.20;99.90
5126;DHT22;2581;53.112;8.896;2022-07-29T13:37:33;26.20;99.90
5126;DHT22;2581;53.112;8.896;2022-07-29T13:40:00;26.10;99.90
5126;DHT22;2581;53.112;8.896;2022-07-29T13:42:28;26.00;99.90
5126;DHT22;2581;53.112;8.896;2022-07-29T13:44:54;26.00;99.90
5126;DHT22;2581;53.112;8.896;2022-07-29T13:47:21;26.00;99.90
5126;DHT22;2581;53.112;8.896;2022-07-29T13:49:47;26.00;99.90
5126;DHT22;2581;53.112;8.896;2022-07-29T13:52:13;25.90;99.90
5126;DHT22;2581;53.112;8.896;2022-07-29T13:54:39;25.90;99.90
5126;DHT22;2581;53.112;8.896;2022-07-29T13:57:05;25.90;99.90
5126;DHT22;2581;53.112;8.896;2022-07-29T13:59:31;25.90;99.90
5126;DHT22;2581;53.112;8.896;2022-07-29T14:01:57;25.90;99.90
5126;DHT22;2581;53.112;8.896;2022-07-29T14:04:22;25.80;99.90
5126;DHT22;2581;53.112;8.896;2022-07-29T14:06:49;25.70;99.90
5126;DHT22;2581;53.112;8.896;2022-07-29T14:09:15;25.70;99.90
5126;DHT22;2581;53.112;8.896;2022-07-29T14:11:41;25.60;99.90
5126;DHT22;2581;53.112;8.896;2022-07-29T14:14:06;25.50;99.90
5126;DHT22;2581;53.112;8.896;2022-07-29T14:16:32;25.40;99.90
5126;DHT22;2581;53.112;8.896;2022-07-29T14:18:58;25.40;99.90
5126;DHT22;2581;53.112;8.896;2022-07-29T14:21:24;25.30;99.90
5126;DHT22;2581;53.112;8.896;2022-07-29T14:23:50;25.30;99.90
5126;DHT22;2581;53.112;8.896;2022-07-29T14:26:17;25.30;99.90
5126;DHT22;2581;53.112;8.896;2022-07-29T14:28:42;25.40;99.90
5126;DHT22;2581;53.112;8.896;2022-07-29T14:31:09;25.60;99.90
5126;DHT22;2581;53.112;8.896;2022-07-29T14:33:34;25.80;99.90
5126;DHT22;2581;53.112;8.896;2022-07-29T14:36:00;26.00;99.90
5126;DHT22;2581;53.112;8.896;2022-07-29T14:38:26;26.00;99.90
5126;DHT22;2581;53.112;8.896;2022-07-29T14:40:51;26.10;99.90
5126;DHT22;2581;53.112;8.896;2022-07-29T14:43:17;26.10;99.90
5126;DHT22;2581;53.112;8.896;2022-07-29T14:45:43;26.10;99.90
5126;DHT22;2581;53.112;8.896;2022-07-29T14:48:08;26.10;99.90
5126;DHT22;2581;53.112;8.896;2022-07-29T14:50:35;26.20;99.90
5126;DHT22;2581;53.112;8.896;2022-07-29T14:53:00;26.20;99.90
5126;DHT22;2581;53.112;8.896;2022-07-29T14:55:26;26.20;99.90
5126;DHT22;2581;53.112;8.896;2022-07-29T14:57:52;26.30;99.90
5126;DHT22;2581;53.112;8.896;2022-07-29T15:00:19;26.20;99.90
5126;DHT22;2581;53.112;8.896;2022-07-29T15:02:46;26.10;99.90
5126;DHT22;2581;53.112;8.896;2022-07-29T15:05:12;26.00;99.90
5126;DHT22;2581;53.112;8.896;2022-07-29T15:07:37;25.80;99.90
5126;DHT22;2581;53.112;8.896;2022-07-29T15:10:03;25.70;99.90
5126;DHT22;2581;53.112;8.896;2022-07-29T15:12:30;25.50;99.90
5126;DHT22;2581;53.112;8.896;2022-07-29T15:14:56;25.30;99.90
5126;DHT22;2581;53.112;8.896;2022-07-29T15:17:21;25.20;99.90
5126;DHT22;2581;53.112;8.896;2022-07-29T15:19:47;25.00;99.90
5126;DHT22;2581;53.112;8.896;2022-07-29T15:22:13;24.90;99.90
5126;DHT22;2581;53.112;8.896;2022-07-29T15:24:38;24.70;99.90
5126;DHT22;2581;53.112;8.896;2022-07-29T15:27:04;24.60;99.90
5126;DHT22;2581;53.112;8.896;2022-07-29T15:29:30;24.50;99.90
5126;DHT22;2581;53.112;8.896;2022-07-29T15:31:55;24.50;99.90
5126;DHT22;2581;53.112;8.896;2022-07-29T15:34:21;24.40;99.90
5126;DHT22;2581;53.112;8.896;2022-07-29T15:36:49;24.30;99.90
5126;DHT22;2581;53.112;8.896;2022-07-29T15:39:16;24.20;99.90
5126;DHT22;2581;53.112;8.896;2022-07-29T15:41:41;24.20;99.90
5126;DHT22;2581;53.112;8.896;2022-07-29T15:44:07;24.20;99.90
5126;DHT22;2581;53.112;8.896;2022-07-29T15:46:33;24.10;99.90
5126;DHT22;2581;53.112;8.896;2022-07-29T15:49:17;24.10;99.90
5126;DHT22;2581;53.112;8.896;2022-07-29T15:51:43;24.10;99.90
5126;DHT22;2581;53.112;8.896;2022-07-29T15:54:09;24.10;99.90
5126;DHT22;2581;53.112;8.896;2022-07-29T15:56:34;24.00;99.90
5126;DHT22;2581;53.112;8.896;2022-07-29T15:59:00;24.00;99.90
5126;DHT22;2581;53.112;8.896;2022-07-29T16:01:26;24.00;99.90
5126;DHT22;2581;53.112;8.896;2022-07-29T16:03:52;24.00;99.90
5126;DHT22;2581;53.112;8.896;2022-07-29T16:06:18;24.00;99.90
5126;DHT22;2581;53.112;8.896;2022-07-29T16:08:44;24.00;99.90
5126;DHT22;2581;53.112;8.896;2022-07-29T16:11:09;24.00;99.90
5126;DHT22;2581;53.112;8.896;2022-07-29T16:13:35;24.10;99.90
5126;DHT22;2581;53.112;8.896;2022-07-29T16:16:01;24.10;99.90
5126;DHT22;2581;53.112;8.896;2022-07-29T16:18:26;24.10;99.90
5126;DHT22;2581;53.112;8.896;2022-07-29T16:20:52;24.10;99.90
5126;DHT22;2581;53.112;8.896;2022-07-29T16:23:18;24.10;99.90
5126;DHT22;2581;53.112;8.896;2022-07-29T16:25:44;24.20;99.90
5126;DHT22;2581;53.112;8.896;2022-07-29T16:28:09;24.20;99.90
5126;DHT22;2581;53.112;8.896;2022-07-29T16:30:35;24.10;99.90
5126;DHT22;2581;53.112;8.896;2022-07-29T16:33:01;24.10;99.90
5126;DHT22;2581;53.112;8.896;2022-07-29T16:35:27;24.10;99.90
5126;DHT22;2581;53.112;8.896;2022-07-29T16:37:55;24.10;99.90
5126;DHT22;2581;53.112;8.896;2022-07-29T16:40:20;24.10;99.90
5126;DHT22;2581;53.112;8.896;2022-07-29T16:42:46;24.00;99.90
5126;DHT22;2581;53.112;8.896;2022-07-29T16:45:12;24.00;99.90
5126;DHT22;2581;53.112;8.896;2022-07-29T16:47:38;23.90;99.90
5126;DHT22;2581;53.112;8.896;2022-07-29T16:50:04;23.90;99.90
5126;DHT22;2581;53.112;8.896;2022-07-29T16:52:29;23.90;99.90
5126;DHT22;2581;53.112;8.896;2022-07-29T16:54:55;23.90;99.90
5126;DHT22;2581;53.112;8.896;2022-07-29T16:57:21;23.80;99.90
5126;DHT22;2581;53.112;8.896;2022-07-29T16:59:46;23.80;99.90
5126;DHT22;2581;53.112;8.896;2022-07-29T17:02:14;23.80;99.90
5126;DHT22;2581;53.112;8.896;2022-07-29T17:04:39;23.70;99.90
5126;DHT22;2581;53.112;8.896;2022-07-29T17:07:05;23.70;99.90
5126;DHT22;2581;53.112;8.896;2022-07-29T17:09:31;23.60;99.90
5126;DHT22;2581;53.112;8.896;2022-07-29T17:11:57;23.60;99.90
5126;DHT22;2581;53.112;8.896;2022-07-29T17:14:32;23.60;99.90
5126;DHT22;2581;53.112;8.896;2022-07-29T17:16:59;23.60;99.90
5126;DHT22;2581;53.112;8.896;2022-07-29T17:19:25;23.50;99.90